createdAt,value
2023-03-18T00:00:19.169Z,9.40
2023-03-18T00:02:48.992Z,9.40
2023-03-18T00:05:18.663Z,9.40
2023-03-18T00:07:47.879Z,9.40
2023-03-18T00:10:19.027Z,9.30
2023-03-18T00:12:48.112Z,9.30
2023-03-18T00:15:19.011Z,9.30
2023-03-18T00:17:48.589Z,9.30
2023-03-18T00:20:28.919Z,9.20
2023-03-18T00:22:59.862Z,9.20
2023-03-18T00:25:30.132Z,9.20
2023-03-18T00:28:01.255Z,9.10
2023-03-18T00:30:30.634Z,9.10
2023-03-18T00:33:00.526Z,9.10
2023-03-18T00:35:30.886Z,9.10
2023-03-18T00:38:03.578Z,9.10
2023-03-18T00:40:54.110Z,9.10
2023-03-18T00:43:29.304Z,9.20
2023-03-18T00:46:00.471Z,9.20
2023-03-18T00:48:30.240Z,9.20
2023-03-18T00:50:58.771Z,9.00
2023-03-18T00:53:28.496Z,9.00
2023-03-18T00:55:58.710Z,8.80
2023-03-18T00:58:27.497Z,8.70
2023-03-18T01:00:57.834Z,8.70
2023-03-18T01:03:27.716Z,8.70
2023-03-18T01:05:56.608Z,8.80
2023-03-18T01:08:25.157Z,8.80
2023-03-18T01:10:54.864Z,8.90
2023-03-18T01:13:25.978Z,9.00
2023-03-18T01:15:55.779Z,9.00
2023-03-18T01:18:26.150Z,9.00
2023-03-18T01:20:55.875Z,9.00
2023-03-18T01:23:24.970Z,9.00
2023-03-18T01:25:54.188Z,9.00
2023-03-18T01:28:24.929Z,9.10
2023-03-18T01:30:54.025Z,9.10
2023-03-18T01:33:24.173Z,9.10
2023-03-18T01:35:56.169Z,9.00
2023-03-18T01:38:30.420Z,9.00
2023-03-18T01:41:03.941Z,9.00
2023-03-18T01:43:35.981Z,9.00
2023-03-18T01:46:38.028Z,9.00
2023-03-18T01:49:12.629Z,8.90
2023-03-18T01:51:44.118Z,8.90
2023-03-18T01:54:16.606Z,8.90
2023-03-18T01:56:47.725Z,8.90
2023-03-18T01:59:18.279Z,8.90
2023-03-18T02:01:51.758Z,8.80
2023-03-18T02:04:23.537Z,8.70
2023-03-18T02:06:53.306Z,8.50
2023-03-18T02:09:22.200Z,8.40
2023-03-18T02:14:28.175Z,8.10
2023-03-18T02:17:03.171Z,7.90
2023-03-18T02:19:51.985Z,7.80
2023-03-18T02:22:28.651Z,7.70
2023-03-18T02:25:16.889Z,7.50
2023-03-18T02:27:50.703Z,7.20
2023-03-18T02:30:24.521Z,7.00
2023-03-18T02:32:59.166Z,6.90
2023-03-18T02:35:32.343Z,6.80
2023-03-18T02:38:03.215Z,6.60
2023-03-18T02:40:35.947Z,6.50
2023-03-18T02:43:23.969Z,6.50
2023-03-18T02:46:21.988Z,6.40
2023-03-18T02:48:52.727Z,6.60
2023-03-18T02:51:21.600Z,6.50
2023-03-18T02:53:50.964Z,6.50
2023-03-18T02:56:19.960Z,6.40
2023-03-18T02:58:53.621Z,6.30
2023-03-18T03:01:22.958Z,6.30
2023-03-18T03:03:52.825Z,6.10
2023-03-18T03:06:21.542Z,6.00
2023-03-18T03:08:52.351Z,5.80
2023-03-18T03:11:21.444Z,5.70
2023-03-18T03:13:52.498Z,5.70
2023-03-18T03:16:21.852Z,5.60
2023-03-18T03:18:50.856Z,5.50
2023-03-18T03:21:19.753Z,5.40
2023-03-18T03:23:49.049Z,5.40
2023-03-18T03:26:18.482Z,5.40
2023-03-18T03:28:47.194Z,5.40
2023-03-18T03:31:17.487Z,5.40
2023-03-18T03:33:48.020Z,5.40
2023-03-18T03:36:18.124Z,5.30
2023-03-18T03:38:46.832Z,5.30
2023-03-18T03:41:15.959Z,5.20
2023-03-18T03:43:46.459Z,5.10
2023-03-18T03:46:16.747Z,5.10
2023-03-18T03:48:45.360Z,5.10
2023-03-18T03:51:16.319Z,5.20
2023-03-18T03:53:46.462Z,5.20
2023-03-18T03:56:15.772Z,5.20
2023-03-18T03:58:44.876Z,5.10
2023-03-18T04:01:14.389Z,5.00
2023-03-18T04:03:45.949Z,5.00
2023-03-18T04:06:15.737Z,4.90
2023-03-18T04:08:52.732Z,4.80
2023-03-18T04:11:22.153Z,4.80
2023-03-18T04:13:51.872Z,4.80
2023-03-18T04:16:20.455Z,4.80
2023-03-18T04:18:51.068Z,4.70
2023-03-18T04:21:23.885Z,4.60
2023-03-18T04:23:55.700Z,4.50
2023-03-18T04:26:26.633Z,4.40
2023-03-18T04:28:55.969Z,4.40
2023-03-18T04:31:24.961Z,4.40
2023-03-18T04:33:55.576Z,4.30
2023-03-18T04:36:25.547Z,4.50
2023-03-18T04:38:55.610Z,4.40
2023-03-18T04:41:24.452Z,4.30
2023-03-18T04:43:54.005Z,4.20
2023-03-18T04:46:23.337Z,4.20
2023-03-18T04:48:52.884Z,4.10
2023-03-18T04:51:23.436Z,4.20
2023-03-18T04:53:52.221Z,4.20
2023-03-18T04:56:21.020Z,4.10
2023-03-18T04:58:52.978Z,4.10
2023-03-18T05:01:28.817Z,4.10
2023-03-18T05:03:58.108Z,4.00
2023-03-18T05:06:35.097Z,4.10
2023-03-18T05:09:09.051Z,4.20
2023-03-18T05:11:38.711Z,4.30
2023-03-18T05:14:30.132Z,4.40
2023-03-18T05:17:00.449Z,4.40
2023-03-18T05:19:30.035Z,4.30
2023-03-18T05:22:11.775Z,4.40
2023-03-18T05:24:41.514Z,4.30
2023-03-18T05:27:10.950Z,4.30
2023-03-18T05:29:43.564Z,4.30
2023-03-18T05:32:23.309Z,4.20
2023-03-18T05:34:57.328Z,4.20
2023-03-18T05:37:27.549Z,4.10
2023-03-18T05:40:09.969Z,4.00
2023-03-18T05:42:54.921Z,3.90
2023-03-18T05:45:27.553Z,3.80
2023-03-18T05:47:57.800Z,3.70
2023-03-18T05:50:31.487Z,3.80
2023-03-18T05:53:03.376Z,3.70
2023-03-18T05:55:37.260Z,3.70
2023-03-18T05:58:06.098Z,3.70
2023-03-18T06:00:37.606Z,3.80
2023-03-18T06:03:06.733Z,3.80
2023-03-18T06:05:35.978Z,3.80
2023-03-18T06:08:07.255Z,3.90
2023-03-18T06:10:38.851Z,3.90
2023-03-18T06:13:07.775Z,4.00
2023-03-18T06:15:37.282Z,4.10
2023-03-18T06:18:06.311Z,4.10
2023-03-18T06:20:35.515Z,4.10
2023-03-18T06:23:09.071Z,4.10
2023-03-18T06:25:39.403Z,4.10
2023-03-18T06:28:08.600Z,4.20
2023-03-18T06:30:38.221Z,4.20
2023-03-18T06:33:07.382Z,4.20
2023-03-18T06:35:36.888Z,4.30
2023-03-18T06:38:08.806Z,4.30
2023-03-18T06:40:40.571Z,4.40
2023-03-18T06:43:11.139Z,4.50
2023-03-18T06:45:42.838Z,4.60
2023-03-18T06:48:12.060Z,4.70
2023-03-18T06:50:45.162Z,4.80
2023-03-18T06:53:21.911Z,4.90
2023-03-18T06:55:52.694Z,4.90
2023-03-18T06:58:24.783Z,5.00
2023-03-18T07:01:02.987Z,5.10
2023-03-18T07:03:37.269Z,5.10
2023-03-18T07:06:06.685Z,5.20
2023-03-18T07:08:37.200Z,5.20
2023-03-18T07:11:07.140Z,5.20
2023-03-18T07:13:37.756Z,5.30
2023-03-18T07:16:09.662Z,5.50
2023-03-18T07:18:38.750Z,5.80
2023-03-18T07:21:08.137Z,6.10
2023-03-18T07:23:39.252Z,6.20
2023-03-18T07:26:08.116Z,6.50
2023-03-18T07:28:37.511Z,6.80
2023-03-18T07:31:06.441Z,7.10
2023-03-18T07:33:35.105Z,7.50
2023-03-18T07:36:03.586Z,7.70
2023-03-18T07:38:31.945Z,8.00
2023-03-18T07:41:02.344Z,8.10
2023-03-18T07:43:33.336Z,8.20
2023-03-18T07:46:02.853Z,8.20
2023-03-18T07:48:36.394Z,8.30
2023-03-18T07:51:05.316Z,8.40
2023-03-18T07:53:37.406Z,8.60
2023-03-18T07:56:10.106Z,8.80
2023-03-18T07:58:41.136Z,8.80
2023-03-18T08:01:10.026Z,9.00
2023-03-18T08:03:39.050Z,9.40
2023-03-18T08:06:09.192Z,9.90
2023-03-18T08:08:37.681Z,10.30
2023-03-18T08:11:09.551Z,10.60
2023-03-18T08:13:38.943Z,10.80
2023-03-18T08:16:08.137Z,10.90
2023-03-18T08:18:37.004Z,11.10
2023-03-18T08:21:06.230Z,11.20
2023-03-18T08:23:36.530Z,11.40
2023-03-18T08:26:05.143Z,11.50
2023-03-18T08:28:35.752Z,11.70
2023-03-18T08:31:05.746Z,11.80
2023-03-18T08:33:36.839Z,11.80
2023-03-18T08:36:06.342Z,11.80
2023-03-18T08:38:35.478Z,11.80
2023-03-18T08:41:04.171Z,12.00
2023-03-18T08:43:32.427Z,12.00
2023-03-18T08:46:02.807Z,12.10
2023-03-18T08:48:33.482Z,12.20
2023-03-18T08:51:04.772Z,12.30
2023-03-18T08:53:33.243Z,12.60
2023-03-18T08:56:03.277Z,12.70
2023-03-18T08:58:31.808Z,12.80
2023-03-18T09:01:05.272Z,12.70
2023-03-18T09:03:36.150Z,12.60
2023-03-18T09:06:08.211Z,12.60
2023-03-18T09:08:36.653Z,12.60
2023-03-18T09:11:05.973Z,12.60
2023-03-18T09:13:34.698Z,12.60
2023-03-18T09:16:04.988Z,12.70
2023-03-18T09:18:35.345Z,12.80
2023-03-18T09:21:04.861Z,12.80
2023-03-18T09:23:34.384Z,12.90
2023-03-18T09:26:03.855Z,12.90
2023-03-18T09:28:33.380Z,13.00
2023-03-18T09:31:06.197Z,13.00
2023-03-18T09:33:36.982Z,13.20
2023-03-18T09:36:05.808Z,13.30
2023-03-18T09:38:34.146Z,13.50
2023-03-18T09:41:09.531Z,13.50
2023-03-18T09:43:50.523Z,13.60
2023-03-18T09:46:29.346Z,13.50
2023-03-18T09:49:25.882Z,13.60
2023-03-18T09:52:07.131Z,13.80
2023-03-18T09:54:41.813Z,13.90
2023-03-18T09:57:15.434Z,13.90
2023-03-18T09:59:47.161Z,14.00
2023-03-18T10:02:23.907Z,14.10
2023-03-18T10:04:57.401Z,14.40
2023-03-18T10:07:33.293Z,14.60
2023-03-18T10:10:07.167Z,14.60
2023-03-18T10:12:37.737Z,14.60
2023-03-18T10:15:16.430Z,14.50
2023-03-18T10:17:52.501Z,14.50
2023-03-18T10:20:32.589Z,14.60
2023-03-18T10:23:11.558Z,14.60
2023-03-18T10:25:45.174Z,14.70
2023-03-18T10:28:43.437Z,14.80
2023-03-18T10:31:32.140Z,14.60
2023-03-18T10:34:06.465Z,14.60
2023-03-18T10:36:41.597Z,14.60
2023-03-18T10:39:16.558Z,14.50
2023-03-18T10:41:50.338Z,14.30
2023-03-18T10:44:23.825Z,14.30
2023-03-18T10:46:59.103Z,14.30
2023-03-18T10:49:33.375Z,14.20
2023-03-18T10:52:11.609Z,14.00
2023-03-18T10:54:42.842Z,14.10
2023-03-18T10:57:15.976Z,14.20
2023-03-18T10:59:46.432Z,14.20
2023-03-18T11:02:20.952Z,14.10
2023-03-18T11:04:54.668Z,14.00
2023-03-18T11:07:26.713Z,13.90
2023-03-18T11:09:56.424Z,13.90
2023-03-18T11:12:27.153Z,13.90
2023-03-18T11:14:56.481Z,13.90
2023-03-18T11:17:29.182Z,14.00
2023-03-18T11:20:11.348Z,13.80
2023-03-18T11:22:47.545Z,13.70
2023-03-18T11:25:18.177Z,13.80
2023-03-18T11:27:48.435Z,13.90
2023-03-18T11:30:33.624Z,13.90
2023-03-18T11:33:07.615Z,13.90
2023-03-18T11:35:45.576Z,13.80
2023-03-18T11:38:20.732Z,13.70
2023-03-18T11:40:49.952Z,13.60
2023-03-18T11:43:21.001Z,13.50
2023-03-18T11:45:55.372Z,13.60
2023-03-18T11:48:31.532Z,13.70
2023-03-18T11:51:35.032Z,13.80
2023-03-18T11:54:39.688Z,14.00
2023-03-18T11:57:15.700Z,14.20
2023-03-18T11:59:55.071Z,14.40
2023-03-18T12:02:49.734Z,14.60
2023-03-18T12:05:43.676Z,15.00
2023-03-18T12:08:22.992Z,15.60
2023-03-18T12:10:57.872Z,15.90
2023-03-18T12:13:38.055Z,16.00
2023-03-18T12:16:16.685Z,16.20
2023-03-18T12:18:56.661Z,16.30
2023-03-18T12:21:52.988Z,16.40
2023-03-18T12:24:40.855Z,16.20
2023-03-18T12:27:18.048Z,16.30
2023-03-18T12:29:58.022Z,16.50
2023-03-18T12:32:31.892Z,16.50
2023-03-18T12:35:19.495Z,16.70
2023-03-18T12:38:06.660Z,17.10
2023-03-18T12:40:47.233Z,16.90
2023-03-18T12:43:43.058Z,16.70
2023-03-18T12:46:22.397Z,17.00
2023-03-18T12:48:59.217Z,17.10
2023-03-18T12:51:32.098Z,16.90
2023-03-18T12:54:09.668Z,16.90
2023-03-18T12:56:45.345Z,16.70
2023-03-18T12:59:20.491Z,16.50
2023-03-18T13:01:58.628Z,16.90
2023-03-18T13:04:33.436Z,17.40
2023-03-18T13:07:07.006Z,17.70
2023-03-18T13:09:39.549Z,17.70
2023-03-18T13:12:13.666Z,18.20
2023-03-18T13:14:51.820Z,18.30
2023-03-18T13:17:26.508Z,18.00
2023-03-18T13:19:58.544Z,18.60
2023-03-18T13:22:52.200Z,18.70
2023-03-18T13:25:33.765Z,18.20
2023-03-18T13:28:25.474Z,18.30
2023-03-18T13:34:55.080Z,19.40
2023-03-18T13:37:43.371Z,19.20
2023-03-18T13:40:28.914Z,18.80
2023-03-18T13:42:59.097Z,18.70
2023-03-18T13:45:32.455Z,19.10
2023-03-18T13:48:03.751Z,19.50
2023-03-18T13:54:18.643Z,19.60
2023-03-18T13:56:52.854Z,20.10
2023-03-18T13:59:47.067Z,20.10
2023-03-18T14:02:43.838Z,20.40
2023-03-18T14:05:47.043Z,20.40
2023-03-18T14:08:51.980Z,20.10
2023-03-18T14:11:50.882Z,20.60
2023-03-18T14:14:56.909Z,20.60
2023-03-18T14:17:37.294Z,20.80
2023-03-18T14:20:27.379Z,20.70
2023-03-18T14:22:57.926Z,21.00
2023-03-18T14:25:45.199Z,21.30
2023-03-18T14:28:21.906Z,21.50
2023-03-18T14:30:57.630Z,20.60
2023-03-18T14:34:25.333Z,20.40
2023-03-18T14:37:20.510Z,20.50
2023-03-18T14:39:53.775Z,20.40
2023-03-18T14:42:37.049Z,19.50
2023-03-18T14:45:18.739Z,19.40
2023-03-18T14:47:50.825Z,18.80
2023-03-18T14:50:30.263Z,18.10
2023-03-18T14:53:05.690Z,18.00
2023-03-18T14:55:42.108Z,18.30
2023-03-18T14:58:18.521Z,18.90
2023-03-18T15:00:51.838Z,19.20
2023-03-18T15:03:27.435Z,20.10
2023-03-18T15:06:03.093Z,20.30
2023-03-18T15:08:47.461Z,20.10
2023-03-18T15:11:23.134Z,20.40
2023-03-18T15:14:00.351Z,20.90
2023-03-18T15:16:33.685Z,20.90
2023-03-18T15:19:01.988Z,20.60
2023-03-18T15:21:36.752Z,19.60
2023-03-18T15:24:09.447Z,19.60
2023-03-18T15:26:40.061Z,20.00
2023-03-18T15:29:28.283Z,20.10
2023-03-18T15:32:10.839Z,20.10
2023-03-18T15:34:42.421Z,19.70
2023-03-18T15:37:34.302Z,19.30
2023-03-18T15:40:28.898Z,18.70
2023-03-18T15:42:59.207Z,18.40
2023-03-18T15:45:31.468Z,18.40
2023-03-18T15:48:08.546Z,18.40
2023-03-18T15:50:38.372Z,18.70
2023-03-18T15:53:21.834Z,18.50
2023-03-18T15:55:52.849Z,18.50
2023-03-18T15:58:25.197Z,18.40
2023-03-18T16:00:55.655Z,18.20
2023-03-18T16:03:31.722Z,18.10
2023-03-18T16:06:00.661Z,17.90
2023-03-18T16:08:31.604Z,17.80
2023-03-18T16:11:04.171Z,17.70
2023-03-18T16:13:38.501Z,17.60
2023-03-18T16:16:08.447Z,17.60
2023-03-18T16:18:36.888Z,17.60
2023-03-18T16:21:05.702Z,17.50
2023-03-18T16:23:35.919Z,17.60
2023-03-18T16:26:04.699Z,17.40
2023-03-18T16:28:33.873Z,17.30
2023-03-18T16:31:02.411Z,17.20
2023-03-18T16:33:31.854Z,17.00
2023-03-18T16:36:02.056Z,16.80
2023-03-18T16:38:32.186Z,16.40
2023-03-18T16:41:04.367Z,16.10
2023-03-18T16:43:33.893Z,15.90
2023-03-18T16:46:05.897Z,15.60
2023-03-18T16:48:35.411Z,15.40
2023-03-18T16:51:05.286Z,15.30
2023-03-18T16:53:36.012Z,15.00
2023-03-18T16:56:16.602Z,14.90
2023-03-18T16:58:45.788Z,14.80
2023-03-18T17:01:17.018Z,14.60
2023-03-18T17:03:47.194Z,14.40
2023-03-18T17:06:16.645Z,14.20
2023-03-18T17:08:45.213Z,14.10
2023-03-18T17:11:19.557Z,14.00
2023-03-18T17:13:48.903Z,13.70
2023-03-18T17:16:21.285Z,13.70
2023-03-18T17:18:51.833Z,13.60
2023-03-18T17:21:20.591Z,13.60
2023-03-18T17:23:49.130Z,13.60
2023-03-18T17:26:19.739Z,13.50
2023-03-18T17:28:52.530Z,13.40
2023-03-18T17:31:21.563Z,13.30
2023-03-18T17:33:50.776Z,13.20
2023-03-18T17:36:20.614Z,13.00
2023-03-18T17:38:49.288Z,12.90
2023-03-18T17:41:22.543Z,12.70
2023-03-18T17:43:53.828Z,12.50
2023-03-18T17:46:22.399Z,12.50
2023-03-18T17:48:51.983Z,12.30
2023-03-18T17:51:23.957Z,12.20
2023-03-18T17:53:57.122Z,12.00
2023-03-18T17:56:27.941Z,11.80
2023-03-18T17:58:57.229Z,11.60
2023-03-18T18:01:27.878Z,11.30
2023-03-18T18:03:57.303Z,11.20
2023-03-18T18:06:29.227Z,11.00
2023-03-18T18:09:00.671Z,10.90
2023-03-18T18:11:32.706Z,10.60
2023-03-18T18:14:04.482Z,10.30
2023-03-18T18:16:36.083Z,10.20
2023-03-18T18:19:06.643Z,10.00
2023-03-18T18:21:37.850Z,9.80
2023-03-18T18:24:15.633Z,9.70
2023-03-18T18:26:49.304Z,9.50
2023-03-18T18:29:23.519Z,9.30
2023-03-18T18:31:54.098Z,9.20
2023-03-18T18:34:24.232Z,9.10
2023-03-18T18:36:54.661Z,9.00
2023-03-18T18:39:24.710Z,9.00
2023-03-18T18:41:55.086Z,8.90
2023-03-18T18:44:23.828Z,8.80
2023-03-18T18:46:54.993Z,8.80
2023-03-18T18:49:25.948Z,8.70
2023-03-18T18:51:56.183Z,8.60
2023-03-18T18:54:26.098Z,8.50
2023-03-18T18:57:00.154Z,8.30
2023-03-18T18:59:31.857Z,8.20
2023-03-18T19:02:01.089Z,8.10
2023-03-18T19:04:33.141Z,8.10
2023-03-18T19:07:04.761Z,8.00
2023-03-18T19:09:35.055Z,8.00
2023-03-18T19:12:05.678Z,8.10
2023-03-18T19:14:34.882Z,8.10
2023-03-18T19:17:04.276Z,8.00
2023-03-18T19:19:36.514Z,8.00
2023-03-18T19:22:07.813Z,8.00
2023-03-18T19:24:38.069Z,7.90
2023-03-18T19:27:17.417Z,7.90
2023-03-18T19:29:48.659Z,7.90
2023-03-18T19:32:20.246Z,7.90
2023-03-18T19:34:51.616Z,7.80
2023-03-18T19:37:21.861Z,7.80
2023-03-18T19:39:50.557Z,7.80
2023-03-18T19:42:22.830Z,7.70
2023-03-18T19:44:51.250Z,7.60
2023-03-18T19:47:23.263Z,7.50
2023-03-18T19:49:52.877Z,7.50
2023-03-18T19:52:26.424Z,7.50
2023-03-18T19:54:56.287Z,7.50
2023-03-18T19:57:33.160Z,7.50
2023-03-18T20:00:05.234Z,7.50
2023-03-18T20:02:35.592Z,7.40
2023-03-18T20:05:06.526Z,7.30
2023-03-18T20:07:35.171Z,7.30
2023-03-18T20:10:09.602Z,7.30
2023-03-18T20:12:41.212Z,7.30
2023-03-18T20:15:15.506Z,7.30
2023-03-18T20:17:47.432Z,7.40
2023-03-18T20:20:19.303Z,7.40
2023-03-18T20:22:52.855Z,7.40
2023-03-18T20:25:31.769Z,7.40
2023-03-18T20:28:04.618Z,7.50
2023-03-18T20:30:37.994Z,7.50
2023-03-18T20:33:07.844Z,7.60
2023-03-18T20:35:40.469Z,7.60
2023-03-18T20:38:16.109Z,7.70
2023-03-18T20:40:48.998Z,7.60
2023-03-18T20:43:23.692Z,7.60
2023-03-18T20:45:53.131Z,7.60
2023-03-18T20:48:25.538Z,7.60
2023-03-18T20:50:55.584Z,7.70
2023-03-18T20:53:28.259Z,7.70
2023-03-18T20:55:59.091Z,7.80
2023-03-18T20:58:29.825Z,7.80
2023-03-18T21:00:59.081Z,7.80
2023-03-18T21:03:31.522Z,7.80
2023-03-18T21:06:03.617Z,7.70
2023-03-18T21:08:33.658Z,7.60
2023-03-18T21:11:03.680Z,7.60
2023-03-18T21:13:36.582Z,7.60
2023-03-18T21:16:07.327Z,7.70
2023-03-18T21:18:36.706Z,7.60
2023-03-18T21:21:05.545Z,7.50
2023-03-18T21:23:36.930Z,7.30
2023-03-18T21:26:07.207Z,7.30
2023-03-18T21:28:38.732Z,7.10
2023-03-18T21:31:22.393Z,7.10
2023-03-18T21:33:51.503Z,7.00
2023-03-18T21:36:20.572Z,6.90
2023-03-18T21:38:49.637Z,6.90
2023-03-18T21:41:23.607Z,6.80
2023-03-18T21:43:53.800Z,6.80
2023-03-18T21:46:24.922Z,6.80
2023-03-18T21:48:53.676Z,6.80
2023-03-18T21:51:38.089Z,6.80
2023-03-18T21:54:08.441Z,6.80
2023-03-18T21:56:40.576Z,6.90
2023-03-18T21:59:11.004Z,6.90
2023-03-18T22:01:39.586Z,7.00
2023-03-18T22:04:08.137Z,7.10
2023-03-18T22:06:37.441Z,7.10
2023-03-18T22:09:07.380Z,7.20
2023-03-18T22:11:36.227Z,7.20
2023-03-18T22:14:05.588Z,7.30
2023-03-18T22:16:35.703Z,7.30
2023-03-18T22:19:06.500Z,7.40
2023-03-18T22:21:34.982Z,7.40
2023-03-18T22:24:04.397Z,7.40
2023-03-18T22:26:33.272Z,7.50
2023-03-18T22:29:02.142Z,7.50
2023-03-18T22:31:32.068Z,7.60
2023-03-18T22:34:01.985Z,7.60
2023-03-18T22:36:30.585Z,7.60
2023-03-18T22:38:59.154Z,7.70
2023-03-18T22:41:30.472Z,7.70
2023-03-18T22:44:00.469Z,7.60
2023-03-18T22:46:32.225Z,7.70
2023-03-18T22:49:08.205Z,7.70
2023-03-18T22:51:40.793Z,7.70
2023-03-18T22:54:16.533Z,7.60
2023-03-18T22:56:45.496Z,7.60
2023-03-18T22:59:14.878Z,7.60
2023-03-18T23:01:43.695Z,7.60
2023-03-18T23:04:14.173Z,7.60
2023-03-18T23:06:44.456Z,7.60
2023-03-18T23:09:13.759Z,7.50
2023-03-18T23:11:42.409Z,7.50
2023-03-18T23:14:12.402Z,7.40
2023-03-18T23:16:41.156Z,7.40
2023-03-18T23:19:09.886Z,7.50
2023-03-18T23:21:40.220Z,7.50
2023-03-18T23:24:10.982Z,7.50
2023-03-18T23:26:40.281Z,7.50
2023-03-18T23:29:09.219Z,7.50
2023-03-18T23:31:38.265Z,7.50
2023-03-18T23:34:07.234Z,7.50
2023-03-18T23:36:35.574Z,7.50
2023-03-18T23:39:05.747Z,7.60
2023-03-18T23:41:34.321Z,7.50
2023-03-18T23:44:03.676Z,7.50
2023-03-18T23:46:34.612Z,7.40
2023-03-18T23:49:04.590Z,7.40
2023-03-18T23:51:35.258Z,7.40
2023-03-18T23:54:08.176Z,7.40
2023-03-18T23:56:37.019Z,7.20
2023-03-18T23:59:06.411Z,7.10
